CSN307 ZGGG-EHAM
Flight info
| Callsign | CSN307 |
|---|---|
| Flight time | N/A |
| Altitude | 36100 |
| Route | MIKIP9 MIKIP A461 BUBDA W56 REBIS/K0917S1070 W56 GUDRO/K0911S1130 W56 OBMEP/K0917S1100 B208 BAXOD/K0902S1160 B208 NIXAL Y746 DARNO/K0906F380 P982 TR A308 ABK R104 BA/K0896F400 R229 XV B228 LITUN N869 UNISO L870 RANVA/N0488F400 L870 RESMO DCT PIMEX DCT RASEL DCT ALASA DCT WANZA N872 KUBAT T200 BLUFA |
| Aircraft | A359/H-SDE2E3GHIJ3J4J5LM1ORWXY/LB1D1 |
Departure
| Time | 2026-04-29 11:22 |
|---|---|
| Airport | Guangzhou Baiyun International Airport (ZGGG) |
Arrival
| Time | N/A |
|---|---|
| Airport | Amsterdam Airport Schiphol (EHAM) |
| Time | Latitude | Longitude | Altitude | Speed | Heading |
|---|---|---|---|---|---|
| 2026-04-29 10:55 | 23.39709 | 113.30592 | 52 ft | 0 kts | 285° |
| 2026-04-29 11:14 | 23.39704 | 113.30613 | 47 ft | 4 kts | 284° |
| 2026-04-29 11:14 | 23.39697 | 113.30642 | 52 ft | 4 kts | 282° |
| 2026-04-29 11:14 | 23.39692 | 113.30671 | 52 ft | 4 kts | 275° |
| 2026-04-29 11:14 | 23.39693 | 113.30699 | 52 ft | 4 kts | 246° |
| 2026-04-29 11:15 | 23.39702 | 113.30711 | 52 ft | 0 kts | 195° |
| 2026-04-29 11:17 | 23.39657 | 113.30698 | 54 ft | 14 kts | 195° |
| 2026-04-29 11:17 | 23.39574 | 113.30674 | 53 ft | 0 kts | 195° |
| 2026-04-29 11:17 | 23.39573 | 113.30673 | 54 ft | 0 kts | 194° |
| 2026-04-29 11:17 | 23.39540 | 113.30697 | 52 ft | 9 kts | 126° |
| 2026-04-29 11:18 | 23.39517 | 113.30764 | 59 ft | 14 kts | 110° |
| 2026-04-29 11:18 | 23.39426 | 113.30837 | 52 ft | 19 kts | 193° |
| 2026-04-29 11:18 | 23.39301 | 113.30804 | 54 ft | 18 kts | 194° |
| 2026-04-29 11:18 | 23.39178 | 113.30770 | 59 ft | 18 kts | 194° |
| 2026-04-29 11:19 | 23.39047 | 113.30735 | 52 ft | 22 kts | 194° |
| 2026-04-29 11:19 | 23.38896 | 113.30695 | 55 ft | 22 kts | 193° |
| 2026-04-29 11:19 | 23.38744 | 113.30654 | 57 ft | 23 kts | 194° |
| 2026-04-29 11:19 | 23.38590 | 113.30613 | 56 ft | 23 kts | 192° |
| 2026-04-29 11:20 | 23.38434 | 113.30572 | 55 ft | 23 kts | 194° |
| 2026-04-29 11:20 | 23.38275 | 113.30528 | 54 ft | 24 kts | 194° |
| 2026-04-29 11:20 | 23.38113 | 113.30483 | 56 ft | 24 kts | 194° |
| 2026-04-29 11:20 | 23.37949 | 113.30439 | 54 ft | 25 kts | 194° |
| 2026-04-29 11:21 | 23.37783 | 113.30398 | 52 ft | 24 kts | 192° |
| 2026-04-29 11:21 | 23.37625 | 113.30381 | 52 ft | 20 kts | 144° |
| 2026-04-29 11:21 | 23.37590 | 113.30506 | 57 ft | 15 kts | 72° |
| 2026-04-29 11:21 | 23.37693 | 113.30569 | 55 ft | 32 kts | 17° |
| 2026-04-29 11:22 | 23.38102 | 113.30682 | 54 ft | 88 kts | 14° |
| 2026-04-29 11:22 | 23.38862 | 113.30888 | 55 ft | 135 kts | 14° |
| 2026-04-29 11:22 | 23.39881 | 113.31152 | 371 ft | 148 kts | 12° |
| 2026-04-29 11:22 | 23.40836 | 113.31328 | 986 ft | 142 kts | 13° |
| 2026-04-29 11:23 | 23.41823 | 113.31612 | 1288 ft | 156 kts | 19° |
| 2026-04-29 11:23 | 23.42933 | 113.31983 | 1521 ft | 178 kts | 19° |
| 2026-04-29 11:23 | 23.44202 | 113.32391 | 1753 ft | 201 kts | 18° |
| 2026-04-29 11:23 | 23.45588 | 113.32819 | 2253 ft | 211 kts | 17° |
| 2026-04-29 11:24 | 23.47010 | 113.33248 | 2901 ft | 214 kts | 16° |
| 2026-04-29 11:24 | 23.48460 | 113.33682 | 3441 ft | 220 kts | 17° |
| 2026-04-29 11:24 | 23.49966 | 113.34130 | 3855 ft | 228 kts | 15° |
| 2026-04-29 11:24 | 23.51499 | 113.34586 | 4365 ft | 231 kts | 14° |
| 2026-04-29 11:25 | 23.53100 | 113.35058 | 4726 ft | 243 kts | 14° |
| 2026-04-29 11:25 | 23.54751 | 113.35548 | 5220 ft | 249 kts | 13° |
| 2026-04-29 11:25 | 23.56453 | 113.35972 | 5731 ft | 253 kts | 7° |
| 2026-04-29 11:25 | 23.58206 | 113.36317 | 6234 ft | 260 kts | 5° |
| 2026-04-29 11:26 | 23.61788 | 113.36995 | 7342 ft | 265 kts | 6° |
| 2026-04-29 11:26 | 23.63616 | 113.37345 | 7941 ft | 268 kts | 7° |
| 2026-04-29 11:26 | 23.65510 | 113.37709 | 8264 ft | 284 kts | 7° |
| 2026-04-29 11:27 | 23.67492 | 113.38088 | 8731 ft | 292 kts | 6° |
| 2026-04-29 11:27 | 23.69507 | 113.38473 | 9345 ft | 296 kts | 6° |
| 2026-04-29 11:27 | 23.71548 | 113.38862 | 9969 ft | 299 kts | 6° |
| 2026-04-29 11:27 | 23.73627 | 113.39258 | 10337 ft | 311 kts | 6° |
| 2026-04-29 11:28 | 23.75817 | 113.39672 | 10572 ft | 327 kts | 6° |
| 2026-04-29 11:28 | 23.78115 | 113.40109 | 10828 ft | 343 kts | 6° |
| 2026-04-29 11:28 | 23.80512 | 113.40568 | 11059 ft | 357 kts | 6° |
| 2026-04-29 11:28 | 23.83001 | 113.41045 | 11290 ft | 370 kts | 7° |
| 2026-04-29 11:29 | 23.85582 | 113.41539 | 11522 ft | 381 kts | 7° |
| 2026-04-29 11:29 | 23.88214 | 113.42051 | 11912 ft | 387 kts | 6° |
| 2026-04-29 11:29 | 23.90878 | 113.42561 | 12354 ft | 391 kts | 6° |
| 2026-04-29 11:29 | 23.93568 | 113.43079 | 12761 ft | 394 kts | 6° |
| 2026-04-29 11:30 | 23.96275 | 113.43593 | 13281 ft | 396 kts | 6° |
| 2026-04-29 11:30 | 23.98998 | 113.44115 | 13730 ft | 399 kts | 6° |
| 2026-04-29 11:30 | 24.01748 | 113.44644 | 14098 ft | 403 kts | 6° |
| 2026-04-29 11:30 | 24.04518 | 113.45176 | 14494 ft | 405 kts | 6° |
| 2026-04-29 11:31 | 24.07311 | 113.45576 | 14904 ft | 404 kts | 357° |
| 2026-04-29 11:31 | 24.10104 | 113.45402 | 15292 ft | 403 kts | 349° |
| 2026-04-29 11:31 | 24.12897 | 113.45030 | 15697 ft | 405 kts | 348° |
| 2026-04-29 11:31 | 24.15696 | 113.44639 | 16111 ft | 407 kts | 348° |
| 2026-04-29 11:32 | 24.18514 | 113.44249 | 16490 ft | 410 kts | 348° |
| 2026-04-29 11:32 | 24.21353 | 113.43861 | 16874 ft | 412 kts | 348° |
| 2026-04-29 11:32 | 24.24167 | 113.43478 | 17252 ft | 414 kts | 348° |
| 2026-04-29 11:32 | 24.27074 | 113.43084 | 17630 ft | 417 kts | 348° |
| 2026-04-29 11:33 | 24.29960 | 113.42694 | 18000 ft | 419 kts | 348° |
| 2026-04-29 11:33 | 24.32859 | 113.42302 | 18354 ft | 421 kts | 348° |
| 2026-04-29 11:33 | 24.35803 | 113.42031 | 18660 ft | 427 kts | 353° |
| 2026-04-29 11:33 | 24.38781 | 113.41980 | 18977 ft | 430 kts | 356° |
| 2026-04-29 11:34 | 24.41778 | 113.42048 | 19297 ft | 433 kts | 357° |
| 2026-04-29 11:34 | 24.44762 | 113.42172 | 19575 ft | 435 kts | 357° |
| 2026-04-29 11:34 | 24.47796 | 113.42310 | 19863 ft | 438 kts | 358° |
| 2026-04-29 11:34 | 24.50844 | 113.42437 | 20220 ft | 439 kts | 357° |
| 2026-04-29 11:35 | 24.53905 | 113.42546 | 20541 ft | 441 kts | 357° |
| 2026-04-29 11:35 | 24.56975 | 113.42644 | 20879 ft | 443 kts | 356° |
| 2026-04-29 11:35 | 24.60061 | 113.42733 | 21208 ft | 445 kts | 356° |
| 2026-04-29 11:35 | 24.63166 | 113.42817 | 21547 ft | 447 kts | 356° |
| 2026-04-29 11:36 | 24.66286 | 113.42904 | 21867 ft | 450 kts | 356° |
| 2026-04-29 11:36 | 24.69427 | 113.42992 | 22175 ft | 453 kts | 356° |
| 2026-04-29 11:36 | 24.72581 | 113.43081 | 22515 ft | 455 kts | 356° |
| 2026-04-29 11:36 | 24.75747 | 113.43171 | 22838 ft | 457 kts | 356° |
| 2026-04-29 11:37 | 24.78937 | 113.43262 | 23117 ft | 459 kts | 356° |
| 2026-04-29 11:37 | 24.82138 | 113.43354 | 23453 ft | 461 kts | 356° |
| 2026-04-29 11:37 | 24.85355 | 113.43445 | 23750 ft | 464 kts | 356° |
| 2026-04-29 11:37 | 24.88589 | 113.43536 | 23992 ft | 466 kts | 356° |
| 2026-04-29 11:38 | 24.91839 | 113.43628 | 24248 ft | 468 kts | 356° |
| 2026-04-29 11:38 | 24.95100 | 113.43721 | 24536 ft | 470 kts | 356° |
| 2026-04-29 11:38 | 24.98374 | 113.43814 | 24821 ft | 472 kts | 356° |
| 2026-04-29 11:38 | 25.01664 | 113.43907 | 25105 ft | 474 kts | 356° |
| 2026-04-29 11:39 | 25.04970 | 113.44001 | 25418 ft | 476 kts | 355° |
| 2026-04-29 11:39 | 25.08289 | 113.44096 | 25738 ft | 478 kts | 355° |
| 2026-04-29 11:39 | 25.11620 | 113.44191 | 26061 ft | 481 kts | 355° |
| 2026-04-29 11:39 | 25.14983 | 113.44288 | 26391 ft | 483 kts | 355° |
| 2026-04-29 11:40 | 25.17208 | 113.44351 | 26600 ft | 484 kts | 355° |
| 2026-04-29 11:40 | 25.20586 | 113.44448 | 26915 ft | 487 kts | 355° |
| 2026-04-29 11:40 | 25.23977 | 113.44538 | 27259 ft | 489 kts | 355° |
| 2026-04-29 11:40 | 25.27385 | 113.44633 | 27551 ft | 492 kts | 355° |
| 2026-04-29 11:41 | 25.31929 | 113.44771 | 28012 ft | 494 kts | 355° |
| 2026-04-29 11:41 | 25.35379 | 113.44876 | 28282 ft | 497 kts | 355° |
| 2026-04-29 11:41 | 25.37718 | 113.44939 | 28498 ft | 498 kts | 354° |
| 2026-04-29 11:41 | 25.41195 | 113.45036 | 28801 ft | 501 kts | 354° |
| 2026-04-29 11:42 | 25.44685 | 113.45138 | 29070 ft | 503 kts | 354° |
| 2026-04-29 11:42 | 25.48196 | 113.45244 | 29330 ft | 505 kts | 354° |
| 2026-04-29 11:42 | 25.51710 | 113.45349 | 29629 ft | 507 kts | 354° |
| 2026-04-29 11:42 | 25.55201 | 113.45447 | 29800 ft | 510 kts | 354° |
| 2026-04-29 11:43 | 25.58765 | 113.45534 | 30028 ft | 512 kts | 354° |
| 2026-04-29 11:43 | 25.62328 | 113.45625 | 30258 ft | 514 kts | 354° |
| 2026-04-29 11:43 | 25.65915 | 113.45728 | 30446 ft | 516 kts | 354° |
| 2026-04-29 11:43 | 25.69507 | 113.45837 | 30619 ft | 518 kts | 354° |
| 2026-04-29 11:44 | 25.73120 | 113.45951 | 30829 ft | 520 kts | 354° |
| 2026-04-29 11:44 | 25.76738 | 113.46065 | 31085 ft | 519 kts | 354° |
| 2026-04-29 11:44 | 25.80345 | 113.46168 | 31392 ft | 519 kts | 354° |
| 2026-04-29 11:44 | 25.83957 | 113.46273 | 31672 ft | 518 kts | 354° |
| 2026-04-29 11:45 | 25.87557 | 113.46376 | 31941 ft | 518 kts | 354° |
| 2026-04-29 11:45 | 25.91150 | 113.46385 | 32193 ft | 515 kts | 351° |
| 2026-04-29 11:45 | 25.94728 | 113.46257 | 32443 ft | 514 kts | 350° |
| 2026-04-29 11:45 | 25.98300 | 113.46073 | 32705 ft | 513 kts | 349° |
| 2026-04-29 11:46 | 26.01864 | 113.45879 | 32949 ft | 513 kts | 349° |
| 2026-04-29 11:46 | 26.05434 | 113.45696 | 33204 ft | 513 kts | 350° |
| 2026-04-29 11:46 | 26.09006 | 113.45529 | 33495 ft | 514 kts | 349° |
| 2026-04-29 11:46 | 26.12569 | 113.45375 | 33738 ft | 513 kts | 350° |
| 2026-04-29 11:47 | 26.16142 | 113.45232 | 33979 ft | 514 kts | 350° |
| 2026-04-29 11:47 | 26.19717 | 113.45096 | 34198 ft | 514 kts | 350° |
| 2026-04-29 11:47 | 26.23290 | 113.44962 | 34397 ft | 514 kts | 350° |
| 2026-04-29 11:47 | 26.26864 | 113.44827 | 34581 ft | 514 kts | 350° |
| 2026-04-29 11:48 | 26.30390 | 113.44694 | 34765 ft | 514 kts | 350° |
| 2026-04-29 11:48 | 26.33966 | 113.44558 | 34936 ft | 514 kts | 350° |
| 2026-04-29 11:48 | 26.37537 | 113.44422 | 35119 ft | 514 kts | 350° |
| 2026-04-29 11:48 | 26.41108 | 113.44285 | 35231 ft | 515 kts | 350° |
| 2026-04-29 11:49 | 26.48277 | 113.44009 | 35257 ft | 514 kts | 350° |
| 2026-04-29 11:49 | 26.55427 | 113.43740 | 35259 ft | 514 kts | 350° |
| 2026-04-29 11:50 | 26.62572 | 113.43465 | 35260 ft | 514 kts | 350° |
| 2026-04-29 11:50 | 26.69726 | 113.43187 | 35265 ft | 514 kts | 350° |
| 2026-04-29 11:51 | 26.76831 | 113.42912 | 35266 ft | 514 kts | 350° |
| 2026-04-29 11:51 | 26.83971 | 113.42644 | 35267 ft | 511 kts | 350° |
| 2026-04-29 11:52 | 26.91061 | 113.42371 | 35267 ft | 510 kts | 350° |
| 2026-04-29 11:52 | 26.98154 | 113.42094 | 35267 ft | 510 kts | 349° |
| 2026-04-29 11:53 | 27.05239 | 113.41818 | 35266 ft | 510 kts | 349° |
| 2026-04-29 11:53 | 27.12334 | 113.41543 | 35273 ft | 510 kts | 349° |
| 2026-04-29 11:54 | 27.19418 | 113.41269 | 35271 ft | 510 kts | 349° |
| 2026-04-29 11:54 | 27.26516 | 113.40993 | 35274 ft | 512 kts | 349° |
| 2026-04-29 11:55 | 27.33640 | 113.40717 | 35275 ft | 513 kts | 349° |
| 2026-04-29 11:55 | 27.40815 | 113.40740 | 35274 ft | 517 kts | 353° |
| 2026-04-29 11:56 | 27.48011 | 113.40974 | 35314 ft | 517 kts | 353° |
| 2026-04-29 11:56 | 27.55212 | 113.41179 | 35282 ft | 517 kts | 353° |
| 2026-04-29 11:57 | 27.62403 | 113.41337 | 35281 ft | 517 kts | 352° |
| 2026-04-29 11:57 | 27.69608 | 113.41579 | 35281 ft | 520 kts | 355° |
| 2026-04-29 11:58 | 27.76843 | 113.42257 | 35305 ft | 522 kts | 357° |
| 2026-04-29 11:58 | 27.84079 | 113.43007 | 35270 ft | 521 kts | 356° |
| 2026-04-29 11:59 | 27.91323 | 113.43696 | 35289 ft | 523 kts | 356° |
| 2026-04-29 11:59 | 27.98526 | 113.44341 | 35290 ft | 523 kts | 356° |
| 2026-04-29 12:00 | 28.05777 | 113.44972 | 35287 ft | 522 kts | 356° |
| 2026-04-29 12:00 | 28.13013 | 113.45577 | 35296 ft | 520 kts | 355° |
| 2026-04-29 12:01 | 28.20237 | 113.46077 | 35297 ft | 520 kts | 355° |
| 2026-04-29 12:01 | 28.27452 | 113.46566 | 35297 ft | 520 kts | 355° |
| 2026-04-29 12:02 | 28.34676 | 113.47072 | 35299 ft | 519 kts | 355° |
| 2026-04-29 12:02 | 28.41884 | 113.47593 | 35302 ft | 519 kts | 355° |
| 2026-04-29 12:03 | 28.49090 | 113.48113 | 35300 ft | 519 kts | 355° |
| 2026-04-29 12:03 | 28.56295 | 113.48628 | 35340 ft | 519 kts | 355° |
| 2026-04-29 12:04 | 28.63497 | 113.49138 | 35305 ft | 518 kts | 355° |
| 2026-04-29 12:04 | 28.70634 | 113.49646 | 35307 ft | 518 kts | 355° |
| 2026-04-29 12:05 | 28.77827 | 113.50163 | 35308 ft | 518 kts | 355° |
| 2026-04-29 12:05 | 28.85018 | 113.50687 | 35316 ft | 517 kts | 355° |
| 2026-04-29 12:06 | 28.92198 | 113.51198 | 35312 ft | 516 kts | 355° |
| 2026-04-29 12:06 | 28.99363 | 113.51707 | 35311 ft | 516 kts | 355° |
| 2026-04-29 12:07 | 29.06532 | 113.52226 | 35312 ft | 516 kts | 355° |
| 2026-04-29 12:07 | 29.13705 | 113.52744 | 35310 ft | 516 kts | 355° |
| 2026-04-29 12:08 | 29.20866 | 113.53262 | 35312 ft | 516 kts | 355° |
| 2026-04-29 12:08 | 29.28031 | 113.53780 | 35310 ft | 516 kts | 355° |
| 2026-04-29 12:09 | 29.35204 | 113.54361 | 35345 ft | 517 kts | 356° |
| 2026-04-29 12:09 | 29.42327 | 113.54995 | 35310 ft | 515 kts | 356° |
| 2026-04-29 12:10 | 29.49473 | 113.55630 | 35312 ft | 515 kts | 356° |
| 2026-04-29 12:10 | 29.56614 | 113.56253 | 35311 ft | 515 kts | 356° |
| 2026-04-29 12:11 | 29.63761 | 113.56873 | 35322 ft | 515 kts | 356° |
| 2026-04-29 12:11 | 29.70893 | 113.57493 | 35311 ft | 514 kts | 356° |
| 2026-04-29 12:12 | 29.78028 | 113.58114 | 35310 ft | 514 kts | 356° |
| 2026-04-29 12:12 | 29.85154 | 113.58736 | 35311 ft | 514 kts | 356° |
| 2026-04-29 12:13 | 29.92284 | 113.59475 | 35320 ft | 519 kts | 2° |
| 2026-04-29 12:13 | 29.99287 | 113.61919 | 35306 ft | 531 kts | 15° |
| 2026-04-29 12:14 | 30.06132 | 113.65228 | 35303 ft | 534 kts | 17° |
| 2026-04-29 12:14 | 30.12936 | 113.68682 | 35330 ft | 534 kts | 17° |
| 2026-04-29 12:15 | 30.19729 | 113.72123 | 35311 ft | 532 kts | 17° |
| 2026-04-29 12:15 | 30.26526 | 113.75537 | 35294 ft | 532 kts | 17° |
| 2026-04-29 12:16 | 30.33295 | 113.78928 | 35311 ft | 535 kts | 17° |
| 2026-04-29 12:16 | 30.40128 | 113.82356 | 35312 ft | 533 kts | 17° |
| 2026-04-29 12:17 | 30.46902 | 113.85764 | 35311 ft | 531 kts | 17° |
| 2026-04-29 12:17 | 30.53685 | 113.89178 | 35315 ft | 531 kts | 17° |
| 2026-04-29 12:18 | 30.60468 | 113.92597 | 35327 ft | 531 kts | 16° |
| 2026-04-29 12:18 | 30.67229 | 113.95996 | 35302 ft | 528 kts | 15° |
| 2026-04-29 12:19 | 30.73994 | 113.99347 | 35296 ft | 530 kts | 18° |
| 2026-04-29 12:19 | 30.80655 | 114.03087 | 35292 ft | 532 kts | 19° |
| 2026-04-29 12:20 | 30.87322 | 114.06791 | 35294 ft | 530 kts | 18° |
| 2026-04-29 12:20 | 30.94009 | 114.10426 | 35316 ft | 530 kts | 18° |
| 2026-04-29 12:21 | 31.00703 | 114.14050 | 35321 ft | 531 kts | 18° |
| 2026-04-29 12:21 | 31.07398 | 114.17692 | 35341 ft | 531 kts | 17° |
| 2026-04-29 12:22 | 31.14100 | 114.21333 | 35318 ft | 532 kts | 17° |
| 2026-04-29 12:22 | 31.20809 | 114.24985 | 35317 ft | 532 kts | 17° |
| 2026-04-29 12:23 | 31.27470 | 114.28620 | 35322 ft | 531 kts | 17° |
| 2026-04-29 12:23 | 31.34234 | 114.32007 | 35324 ft | 523 kts | 8° |
| 2026-04-29 12:24 | 31.37737 | 114.32942 | 35322 ft | 510 kts | 358° |
| 2026-04-29 12:24 | 31.41239 | 114.33311 | 35321 ft | 504 kts | 354° |
| 2026-04-29 12:24 | 31.48227 | 114.33628 | 35322 ft | 501 kts | 352° |
| 2026-04-29 12:25 | 31.55191 | 114.33786 | 35325 ft | 501 kts | 351° |
| 2026-04-29 12:26 | 31.65664 | 114.34047 | 35329 ft | 502 kts | 352° |
| 2026-04-29 12:26 | 31.72648 | 114.34253 | 35322 ft | 503 kts | 352° |
| 2026-04-29 12:27 | 31.79638 | 114.34470 | 35346 ft | 503 kts | 352° |
| 2026-04-29 12:27 | 31.86624 | 114.34687 | 35328 ft | 501 kts | 352° |
| 2026-04-29 12:28 | 31.93591 | 114.34895 | 35321 ft | 501 kts | 351° |
| 2026-04-29 12:28 | 32.00567 | 114.35102 | 35319 ft | 501 kts | 351° |
| 2026-04-29 12:29 | 32.07482 | 114.35311 | 35320 ft | 500 kts | 351° |
| 2026-04-29 12:29 | 32.14432 | 114.35523 | 35318 ft | 499 kts | 351° |
| 2026-04-29 12:30 | 32.21369 | 114.35732 | 35310 ft | 499 kts | 351° |
| 2026-04-29 12:30 | 32.28317 | 114.35972 | 35358 ft | 501 kts | 353° |
| 2026-04-29 12:31 | 32.35298 | 114.36587 | 35313 ft | 504 kts | 355° |
| 2026-04-29 12:31 | 32.41104 | 114.37201 | 35311 ft | 504 kts | 355° |
| 2026-04-29 12:32 | 32.48091 | 114.37899 | 35306 ft | 503 kts | 355° |
| 2026-04-29 12:32 | 32.55077 | 114.38552 | 35308 ft | 503 kts | 355° |
| 2026-04-29 12:33 | 32.62061 | 114.39189 | 35302 ft | 505 kts | 355° |
| 2026-04-29 12:33 | 32.69073 | 114.39836 | 35297 ft | 505 kts | 355° |
| 2026-04-29 12:34 | 32.76085 | 114.40487 | 35299 ft | 505 kts | 355° |
| 2026-04-29 12:34 | 32.83105 | 114.41138 | 35295 ft | 506 kts | 355° |
| 2026-04-29 12:35 | 32.90123 | 114.41793 | 35295 ft | 506 kts | 355° |
| 2026-04-29 12:35 | 32.97141 | 114.42449 | 35287 ft | 506 kts | 355° |
| 2026-04-29 12:36 | 33.04160 | 114.43107 | 35290 ft | 505 kts | 356° |
| 2026-04-29 12:36 | 33.11168 | 114.43765 | 35285 ft | 505 kts | 356° |
| 2026-04-29 12:37 | 33.18115 | 114.44418 | 35281 ft | 505 kts | 356° |
| 2026-04-29 12:37 | 33.25115 | 114.45076 | 35309 ft | 505 kts | 356° |
| 2026-04-29 12:38 | 33.32127 | 114.45743 | 35278 ft | 504 kts | 356° |
| 2026-04-29 12:38 | 33.39114 | 114.46401 | 35276 ft | 504 kts | 356° |
| 2026-04-29 12:39 | 33.46104 | 114.47053 | 35274 ft | 504 kts | 356° |
| 2026-04-29 12:39 | 33.53102 | 114.47710 | 35270 ft | 504 kts | 356° |
| 2026-04-29 12:40 | 33.60093 | 114.48371 | 35272 ft | 504 kts | 356° |
| 2026-04-29 12:40 | 33.67084 | 114.49034 | 35405 ft | 504 kts | 356° |
| 2026-04-29 12:40 | 33.70584 | 114.49361 | 35619 ft | 504 kts | 356° |
| 2026-04-29 12:41 | 33.74076 | 114.49668 | 35837 ft | 501 kts | 354° |
| 2026-04-29 12:41 | 33.77529 | 114.49597 | 36006 ft | 491 kts | 346° |
| 2026-04-29 12:41 | 33.80866 | 114.48940 | 36146 ft | 481 kts | 337° |
| 2026-04-29 12:41 | 33.84007 | 114.47695 | 36258 ft | 471 kts | 328° |
| 2026-04-29 12:42 | 33.86898 | 114.45911 | 36259 ft | 464 kts | 322° |
| 2026-04-29 12:42 | 33.92157 | 114.41449 | 36262 ft | 462 kts | 317° |
| 2026-04-29 12:43 | 33.97189 | 114.36746 | 36260 ft | 459 kts | 316° |
| 2026-04-29 12:43 | 34.02194 | 114.31967 | 36262 ft | 459 kts | 316° |
| 2026-04-29 12:44 | 34.07196 | 114.27204 | 36259 ft | 459 kts | 316° |
| 2026-04-29 12:44 | 34.12210 | 114.22446 | 36259 ft | 459 kts | 316° |
| 2026-04-29 12:45 | 34.17227 | 114.17686 | 36256 ft | 459 kts | 316° |
| 2026-04-29 12:45 | 34.22243 | 114.12920 | 36273 ft | 459 kts | 316° |
| 2026-04-29 12:46 | 34.27258 | 114.08147 | 36259 ft | 458 kts | 316° |
| 2026-04-29 12:46 | 34.32269 | 114.03370 | 36256 ft | 459 kts | 316° |
| 2026-04-29 12:47 | 34.37279 | 113.98587 | 36253 ft | 459 kts | 316° |
| 2026-04-29 12:47 | 34.42296 | 113.93789 | 36250 ft | 459 kts | 316° |
| 2026-04-29 12:48 | 34.47301 | 113.88996 | 36258 ft | 459 kts | 316° |
| 2026-04-29 12:48 | 34.52694 | 113.84774 | 36257 ft | 469 kts | 329° |
| 2026-04-29 12:49 | 34.58894 | 113.82171 | 36267 ft | 480 kts | 338° |
| 2026-04-29 12:49 | 34.65350 | 113.80027 | 36254 ft | 482 kts | 339° |
| 2026-04-29 12:50 | 34.71831 | 113.77950 | 36251 ft | 482 kts | 339° |
| 2026-04-29 12:50 | 34.78305 | 113.75840 | 36250 ft | 481 kts | 339° |
| 2026-04-29 12:51 | 34.84762 | 113.73706 | 36251 ft | 479 kts | 339° |
| 2026-04-29 12:51 | 34.91103 | 113.71380 | 36241 ft | 473 kts | 335° |
| 2026-04-29 12:52 | 34.97247 | 113.68564 | 36241 ft | 471 kts | 333° |
| 2026-04-29 12:52 | 35.03369 | 113.65724 | 36240 ft | 471 kts | 334° |
| 2026-04-29 12:53 | 35.09520 | 113.62956 | 36249 ft | 472 kts | 335° |
| 2026-04-29 12:53 | 35.15662 | 113.60236 | 36235 ft | 474 kts | 335° |
| 2026-04-29 12:54 | 35.21863 | 113.57497 | 36246 ft | 474 kts | 335° |
| 2026-04-29 12:54 | 35.28065 | 113.54750 | 36238 ft | 474 kts | 335° |
| 2026-04-29 12:55 | 35.34263 | 113.51997 | 36265 ft | 474 kts | 335° |
| 2026-04-29 12:55 | 35.40465 | 113.49234 | 36248 ft | 475 kts | 335° |
| 2026-04-29 12:56 | 35.46686 | 113.46464 | 36259 ft | 476 kts | 335° |
| 2026-04-29 12:56 | 35.52909 | 113.43705 | 36252 ft | 475 kts | 336° |
| 2026-04-29 12:57 | 35.59134 | 113.40948 | 36261 ft | 475 kts | 336° |
| 2026-04-29 12:57 | 35.65338 | 113.38197 | 36259 ft | 474 kts | 336° |
| 2026-04-29 12:58 | 35.71544 | 113.35431 | 36264 ft | 474 kts | 336° |
| 2026-04-29 12:58 | 35.77737 | 113.32661 | 36254 ft | 474 kts | 336° |
| 2026-04-29 12:59 | 35.83936 | 113.29886 | 36260 ft | 474 kts | 336° |
| 2026-04-29 12:59 | 35.90139 | 113.27117 | 36255 ft | 474 kts | 337° |
| 2026-04-29 13:00 | 35.96339 | 113.24347 | 36249 ft | 475 kts | 338° |
| 2026-04-29 13:00 | 36.02562 | 113.21563 | 36249 ft | 474 kts | 337° |
| 2026-04-29 13:01 | 36.08764 | 113.18782 | 36239 ft | 474 kts | 337° |
| 2026-04-29 13:01 | 36.14963 | 113.15997 | 36243 ft | 474 kts | 338° |
| 2026-04-29 13:02 | 36.21169 | 113.13205 | 36229 ft | 474 kts | 338° |
| 2026-04-29 13:02 | 36.27449 | 113.10816 | 36225 ft | 476 kts | 342° |
| 2026-04-29 13:03 | 36.33844 | 113.08706 | 36227 ft | 474 kts | 343° |
| 2026-04-29 13:03 | 36.40227 | 113.06646 | 36223 ft | 475 kts | 343° |
| 2026-04-29 13:04 | 36.46631 | 113.04574 | 36221 ft | 475 kts | 343° |
| 2026-04-29 13:04 | 36.53030 | 113.02492 | 36219 ft | 475 kts | 343° |
| 2026-04-29 13:05 | 36.59429 | 113.00403 | 36216 ft | 475 kts | 343° |
| 2026-04-29 13:05 | 36.65827 | 112.98310 | 36211 ft | 475 kts | 343° |
| 2026-04-29 13:06 | 36.72213 | 112.96219 | 36214 ft | 475 kts | 343° |
| 2026-04-29 13:06 | 36.78616 | 112.94118 | 36214 ft | 475 kts | 343° |
| 2026-04-29 13:07 | 36.85013 | 112.92015 | 36223 ft | 475 kts | 344° |
| 2026-04-29 13:07 | 36.91403 | 112.89909 | 36255 ft | 476 kts | 346° |
| 2026-04-29 13:08 | 36.97847 | 112.87786 | 36208 ft | 480 kts | 344° |
| 2026-04-29 13:08 | 37.04290 | 112.85659 | 36208 ft | 478 kts | 344° |
| 2026-04-29 13:09 | 37.10727 | 112.83533 | 36209 ft | 478 kts | 345° |
| 2026-04-29 13:09 | 37.17161 | 112.81405 | 36205 ft | 479 kts | 345° |
| 2026-04-29 13:10 | 37.23559 | 112.79288 | 36200 ft | 479 kts | 345° |
| 2026-04-29 13:10 | 37.29995 | 112.77156 | 36198 ft | 477 kts | 345° |
| 2026-04-29 13:11 | 37.36401 | 112.75028 | 36198 ft | 475 kts | 345° |
| 2026-04-29 13:11 | 37.42794 | 112.72899 | 36192 ft | 475 kts | 345° |
| 2026-04-29 13:12 | 37.49180 | 112.70768 | 36195 ft | 475 kts | 345° |
| 2026-04-29 13:12 | 37.55563 | 112.68636 | 36200 ft | 475 kts | 345° |
| 2026-04-29 13:13 | 37.61952 | 112.66498 | 36200 ft | 475 kts | 346° |
| 2026-04-29 13:13 | 37.68346 | 112.64363 | 36202 ft | 475 kts | 346° |
| 2026-04-29 13:14 | 37.74737 | 112.62228 | 36203 ft | 475 kts | 346° |
| 2026-04-29 13:14 | 37.81191 | 112.60407 | 36203 ft | 475 kts | 351° |
| 2026-04-29 13:15 | 37.87688 | 112.58990 | 36199 ft | 473 kts | 351° |
| 2026-04-29 13:15 | 37.94181 | 112.57578 | 36198 ft | 473 kts | 351° |
| 2026-04-29 13:16 | 38.00656 | 112.56100 | 36190 ft | 473 kts | 351° |
| 2026-04-29 13:16 | 38.07125 | 112.54585 | 36192 ft | 472 kts | 351° |
| 2026-04-29 13:17 | 38.13580 | 112.53066 | 36195 ft | 471 kts | 351° |
| 2026-04-29 13:17 | 38.20034 | 112.51548 | 36194 ft | 472 kts | 351° |
| 2026-04-29 13:18 | 38.26486 | 112.50029 | 36191 ft | 472 kts | 351° |
| 2026-04-29 13:18 | 38.32907 | 112.48514 | 36191 ft | 473 kts | 351° |
| 2026-04-29 13:19 | 38.39377 | 112.46986 | 36193 ft | 473 kts | 351° |
| 2026-04-29 13:19 | 38.45844 | 112.45457 | 36189 ft | 473 kts | 351° |
| 2026-04-29 13:20 | 38.52285 | 112.43922 | 36201 ft | 469 kts | 351° |
| 2026-04-29 13:20 | 38.57652 | 112.42629 | 36200 ft | 468 kts | 351° |
| 2026-04-29 13:21 | 38.64055 | 112.41085 | 36199 ft | 468 kts | 351° |
| 2026-04-29 13:21 | 38.70459 | 112.39541 | 36201 ft | 468 kts | 351° |
| 2026-04-29 13:22 | 38.76827 | 112.38004 | 36202 ft | 468 kts | 351° |
| 2026-04-29 13:22 | 38.83233 | 112.36456 | 36202 ft | 469 kts | 351° |
| 2026-04-29 13:23 | 38.89639 | 112.34905 | 36205 ft | 469 kts | 351° |
| 2026-04-29 13:23 | 38.96046 | 112.33350 | 36205 ft | 469 kts | 351° |
| 2026-04-29 13:24 | 39.02452 | 112.31793 | 36209 ft | 469 kts | 351° |
| 2026-04-29 13:24 | 39.08859 | 112.30232 | 36207 ft | 468 kts | 351° |
| 2026-04-29 13:25 | 39.15274 | 112.28667 | 36210 ft | 468 kts | 351° |
| 2026-04-29 13:25 | 39.24892 | 112.26315 | 36205 ft | 470 kts | 351° |
| 2026-04-29 13:26 | 39.29573 | 112.25167 | 36207 ft | 470 kts | 351° |
| 2026-04-29 13:26 | 39.34190 | 112.24035 | 36208 ft | 470 kts | 351° |
| 2026-04-29 13:27 | 39.40614 | 112.22456 | 36209 ft | 470 kts | 351° |
| 2026-04-29 13:27 | 39.47000 | 112.20884 | 36206 ft | 471 kts | 351° |
| 2026-04-29 13:28 | 39.53438 | 112.19308 | 36207 ft | 471 kts | 351° |
| 2026-04-29 13:28 | 39.59887 | 112.17756 | 36206 ft | 471 kts | 351° |
| 2026-04-29 13:29 | 39.66337 | 112.16202 | 36208 ft | 472 kts | 351° |
| 2026-04-29 13:29 | 39.72799 | 112.14639 | 36207 ft | 472 kts | 351° |
| 2026-04-29 13:30 | 39.79255 | 112.13073 | 36211 ft | 472 kts | 351° |
| 2026-04-29 13:30 | 39.85721 | 112.11500 | 36210 ft | 472 kts | 351° |
| 2026-04-29 13:31 | 39.92142 | 112.09937 | 36207 ft | 473 kts | 351° |
| 2026-04-29 13:31 | 39.98611 | 112.08359 | 36208 ft | 473 kts | 351° |
| 2026-04-29 13:32 | 40.05076 | 112.06778 | 36207 ft | 473 kts | 351° |
| 2026-04-29 13:32 | 40.11548 | 112.05184 | 36206 ft | 473 kts | 351° |
| 2026-04-29 13:33 | 40.18022 | 112.03587 | 36202 ft | 473 kts | 351° |
| 2026-04-29 13:33 | 40.24497 | 112.01993 | 36203 ft | 473 kts | 351° |
| 2026-04-29 13:34 | 40.30979 | 112.00397 | 36202 ft | 474 kts | 351° |
| 2026-04-29 13:34 | 40.37460 | 111.98801 | 36203 ft | 474 kts | 351° |
| 2026-04-29 13:35 | 40.43953 | 111.97240 | 36198 ft | 474 kts | 352° |
| 2026-04-29 13:35 | 40.50455 | 111.95813 | 36199 ft | 474 kts | 352° |
| 2026-04-29 13:36 | 40.56929 | 111.94406 | 36200 ft | 474 kts | 352° |
| 2026-04-29 13:36 | 40.63440 | 111.92967 | 36181 ft | 475 kts | 352° |
| 2026-04-29 13:37 | 40.69922 | 111.91190 | 36460 ft | 475 kts | 349° |
| 2026-04-29 13:37 | 40.73138 | 111.90206 | 36599 ft | 475 kts | 348° |
| 2026-04-29 13:37 | 40.76343 | 111.89094 | 36711 ft | 476 kts | 345° |
| 2026-04-29 13:38 | 40.79506 | 111.87816 | 36890 ft | 476 kts | 344° |
| 2026-04-29 13:38 | 40.82659 | 111.86476 | 37032 ft | 476 kts | 344° |
| 2026-04-29 13:38 | 40.85808 | 111.85138 | 37152 ft | 476 kts | 344° |
| 2026-04-29 13:38 | 40.88966 | 111.83821 | 37266 ft | 476 kts | 344° |
| 2026-04-29 13:39 | 40.92135 | 111.82527 | 37382 ft | 476 kts | 345° |
| 2026-04-29 13:39 | 40.95304 | 111.81253 | 37516 ft | 476 kts | 345° |
| 2026-04-29 13:39 | 40.98469 | 111.79993 | 37636 ft | 476 kts | 345° |
| 2026-04-29 13:39 | 41.01639 | 111.78737 | 37776 ft | 474 kts | 345° |
| 2026-04-29 13:40 | 41.04790 | 111.77488 | 38008 ft | 472 kts | 345° |
| 2026-04-29 13:40 | 41.07929 | 111.76242 | 38141 ft | 471 kts | 345° |
| 2026-04-29 13:40 | 41.14220 | 111.73738 | 38203 ft | 473 kts | 345° |
| 2026-04-29 13:41 | 41.20521 | 111.71223 | 38193 ft | 473 kts | 345° |
| 2026-04-29 13:41 | 41.26818 | 111.68704 | 38195 ft | 472 kts | 345° |
| 2026-04-29 13:42 | 41.33070 | 111.66199 | 38195 ft | 472 kts | 345° |
| 2026-04-29 13:42 | 41.39362 | 111.63673 | 38193 ft | 473 kts | 345° |
| 2026-04-29 13:43 | 41.45660 | 111.61139 | 38186 ft | 473 kts | 345° |
| 2026-04-29 13:43 | 41.51960 | 111.58599 | 38184 ft | 473 kts | 345° |
| 2026-04-29 13:44 | 41.58254 | 111.56056 | 38184 ft | 473 kts | 345° |
| 2026-04-29 13:44 | 41.64542 | 111.53512 | 38177 ft | 472 kts | 345° |
| 2026-04-29 13:45 | 41.70825 | 111.50964 | 38173 ft | 472 kts | 345° |
| 2026-04-29 13:45 | 41.77105 | 111.48411 | 38171 ft | 472 kts | 345° |
| 2026-04-29 13:46 | 41.83382 | 111.45855 | 38169 ft | 471 kts | 345° |
| 2026-04-29 13:46 | 41.89646 | 111.43299 | 38165 ft | 471 kts | 345° |
| 2026-04-29 13:47 | 41.95918 | 111.40734 | 38159 ft | 471 kts | 345° |
| 2026-04-29 13:47 | 42.02181 | 111.38168 | 38157 ft | 470 kts | 345° |
| 2026-04-29 13:48 | 42.08431 | 111.35601 | 38150 ft | 469 kts | 345° |
| 2026-04-29 13:48 | 42.14670 | 111.33035 | 38147 ft | 469 kts | 345° |
| 2026-04-29 13:49 | 42.20873 | 111.30478 | 38144 ft | 469 kts | 345° |
| 2026-04-29 13:49 | 42.27109 | 111.27912 | 38144 ft | 468 kts | 345° |
| 2026-04-29 13:50 | 42.33337 | 111.25349 | 38141 ft | 468 kts | 345° |
| 2026-04-29 13:50 | 42.39568 | 111.22779 | 38134 ft | 468 kts | 345° |
| 2026-04-29 13:51 | 42.45790 | 111.20206 | 38133 ft | 467 kts | 345° |
| 2026-04-29 13:51 | 42.52008 | 111.17630 | 38132 ft | 467 kts | 345° |
| 2026-04-29 13:52 | 42.58226 | 111.15048 | 38129 ft | 467 kts | 345° |
| 2026-04-29 13:52 | 42.64435 | 111.12464 | 38118 ft | 466 kts | 345° |
| 2026-04-29 13:53 | 42.70623 | 111.09884 | 38121 ft | 464 kts | 345° |
| 2026-04-29 13:53 | 42.76799 | 111.07303 | 38117 ft | 464 kts | 345° |
| 2026-04-29 13:54 | 42.82974 | 111.04718 | 38116 ft | 464 kts | 345° |
| 2026-04-29 13:54 | 42.89156 | 111.02124 | 38116 ft | 464 kts | 345° |
| 2026-04-29 13:55 | 42.95333 | 110.99527 | 38113 ft | 464 kts | 345° |
| 2026-04-29 13:55 | 43.01512 | 110.96924 | 38112 ft | 464 kts | 345° |
| 2026-04-29 13:56 | 43.07686 | 110.94317 | 38113 ft | 464 kts | 345° |
| 2026-04-29 13:56 | 43.13859 | 110.91706 | 38108 ft | 465 kts | 345° |
| 2026-04-29 13:57 | 43.19837 | 110.88506 | 38101 ft | 467 kts | 334° |
| 2026-04-29 13:57 | 43.24268 | 110.84163 | 38107 ft | 470 kts | 320° |
| 2026-04-29 13:58 | 43.29666 | 110.76827 | 38105 ft | 470 kts | 317° |
| 2026-04-29 13:58 | 43.34180 | 110.70340 | 38099 ft | 469 kts | 317° |
| 2026-04-29 13:59 | 43.38687 | 110.63854 | 38091 ft | 469 kts | 317° |
| 2026-04-29 13:59 | 43.43200 | 110.57389 | 38094 ft | 468 kts | 317° |
| 2026-04-29 14:00 | 43.47714 | 110.50930 | 38093 ft | 468 kts | 317° |
| 2026-04-29 14:00 | 43.52222 | 110.44467 | 38088 ft | 468 kts | 317° |
| 2026-04-29 14:01 | 43.56723 | 110.37998 | 38079 ft | 467 kts | 317° |
| 2026-04-29 14:01 | 43.61211 | 110.31530 | 38082 ft | 466 kts | 317° |
| 2026-04-29 14:02 | 43.65685 | 110.25068 | 38077 ft | 466 kts | 317° |
| 2026-04-29 14:02 | 43.70128 | 110.18636 | 38071 ft | 466 kts | 317° |
| 2026-04-29 14:03 | 43.74595 | 110.12156 | 38063 ft | 465 kts | 316° |
| 2026-04-29 14:03 | 43.79047 | 110.05680 | 38069 ft | 464 kts | 316° |
| 2026-04-29 14:04 | 43.83487 | 109.99208 | 38060 ft | 463 kts | 316° |
| 2026-04-29 14:04 | 43.87924 | 109.92726 | 38049 ft | 463 kts | 316° |
| 2026-04-29 14:05 | 43.92353 | 109.86239 | 38057 ft | 463 kts | 316° |
| 2026-04-29 14:05 | 43.96777 | 109.79745 | 38046 ft | 462 kts | 316° |
| 2026-04-29 14:06 | 44.01185 | 109.73258 | 38043 ft | 462 kts | 316° |
| 2026-04-29 14:06 | 44.05588 | 109.66765 | 38047 ft | 462 kts | 316° |
| 2026-04-29 14:07 | 44.09990 | 109.60261 | 38037 ft | 461 kts | 316° |
| 2026-04-29 14:07 | 44.14380 | 109.53757 | 38038 ft | 460 kts | 316° |
| 2026-04-29 14:08 | 44.18761 | 109.47249 | 38034 ft | 460 kts | 315° |
| 2026-04-29 14:08 | 44.23138 | 109.40733 | 38038 ft | 460 kts | 315° |
| 2026-04-29 14:09 | 44.27482 | 109.34252 | 38029 ft | 460 kts | 315° |
| 2026-04-29 14:09 | 44.31846 | 109.27726 | 38040 ft | 459 kts | 315° |
| 2026-04-29 14:10 | 44.36199 | 109.21201 | 38035 ft | 459 kts | 315° |
| 2026-04-29 14:10 | 44.39817 | 109.15766 | 38036 ft | 459 kts | 315° |
| 2026-04-29 14:11 | 44.44163 | 109.09224 | 38033 ft | 459 kts | 315° |
| 2026-04-29 14:11 | 44.48504 | 109.02673 | 38030 ft | 459 kts | 315° |
| 2026-04-29 14:12 | 44.52839 | 108.96117 | 38033 ft | 458 kts | 315° |
| 2026-04-29 14:12 | 44.57170 | 108.89551 | 38033 ft | 458 kts | 315° |
| 2026-04-29 14:13 | 44.61497 | 108.82976 | 38027 ft | 459 kts | 315° |
| 2026-04-29 14:13 | 44.65826 | 108.76382 | 38023 ft | 459 kts | 315° |
| 2026-04-29 14:14 | 44.70152 | 108.69778 | 38026 ft | 459 kts | 315° |
| 2026-04-29 14:14 | 44.74468 | 108.63171 | 38013 ft | 459 kts | 315° |
| 2026-04-29 14:15 | 44.78787 | 108.56546 | 38017 ft | 459 kts | 315° |
| 2026-04-29 14:15 | 44.83065 | 108.49968 | 38009 ft | 457 kts | 315° |
| 2026-04-29 14:16 | 44.87350 | 108.43363 | 38016 ft | 455 kts | 314° |
| 2026-04-29 14:16 | 44.91616 | 108.36772 | 38002 ft | 455 kts | 314° |
| 2026-04-29 14:17 | 44.95883 | 108.30165 | 38000 ft | 455 kts | 314° |
| 2026-04-29 14:17 | 45.00139 | 108.23552 | 37998 ft | 455 kts | 314° |
| 2026-04-29 14:18 | 45.04372 | 108.16958 | 38000 ft | 451 kts | 314° |
| 2026-04-29 14:18 | 45.08583 | 108.10384 | 38005 ft | 451 kts | 314° |
| 2026-04-29 14:19 | 45.12788 | 108.03806 | 38004 ft | 451 kts | 314° |
| 2026-04-29 14:19 | 45.16989 | 107.97219 | 37992 ft | 450 kts | 314° |
| 2026-04-29 14:20 | 45.21183 | 107.90628 | 37989 ft | 449 kts | 314° |
| 2026-04-29 14:20 | 45.25337 | 107.84082 | 37986 ft | 449 kts | 314° |
| 2026-04-29 14:21 | 45.29537 | 107.77449 | 37986 ft | 449 kts | 314° |
| 2026-04-29 14:21 | 45.33678 | 107.70893 | 37989 ft | 449 kts | 314° |
| 2026-04-29 14:22 | 45.37838 | 107.64292 | 37983 ft | 448 kts | 313° |
| 2026-04-29 14:22 | 45.42001 | 107.57672 | 37984 ft | 448 kts | 313° |
| 2026-04-29 14:23 | 45.46163 | 107.51034 | 37978 ft | 449 kts | 313° |
| 2026-04-29 14:23 | 45.50314 | 107.44398 | 37981 ft | 449 kts | 313° |
| 2026-04-29 14:24 | 45.54463 | 107.37751 | 37984 ft | 448 kts | 313° |
| 2026-04-29 14:24 | 45.58597 | 107.31112 | 37983 ft | 447 kts | 313° |
| 2026-04-29 14:25 | 45.62725 | 107.24466 | 37986 ft | 447 kts | 312° |
| 2026-04-29 14:25 | 45.66847 | 107.17814 | 37991 ft | 447 kts | 312° |
| 2026-04-29 14:26 | 45.70966 | 107.11152 | 37994 ft | 447 kts | 312° |
| 2026-04-29 14:26 | 45.75084 | 107.04476 | 37994 ft | 448 kts | 312° |
| 2026-04-29 14:27 | 45.79201 | 106.97783 | 38003 ft | 448 kts | 312° |
| 2026-04-29 14:28 | 45.85340 | 106.87773 | 38008 ft | 448 kts | 312° |
| 2026-04-29 14:28 | 45.89448 | 106.81058 | 38013 ft | 448 kts | 311° |
| 2026-04-29 14:29 | 45.93554 | 106.74330 | 38027 ft | 448 kts | 311° |
| 2026-04-29 14:29 | 45.97656 | 106.67589 | 38026 ft | 448 kts | 311° |
| 2026-04-29 14:30 | 46.01758 | 106.60832 | 38049 ft | 448 kts | 311° |
| 2026-04-29 14:30 | 46.05853 | 106.54071 | 38062 ft | 448 kts | 311° |
| 2026-04-29 14:31 | 46.09944 | 106.47303 | 38068 ft | 448 kts | 311° |
| 2026-04-29 14:31 | 46.14031 | 106.40523 | 38081 ft | 448 kts | 311° |
| 2026-04-29 14:32 | 46.18112 | 106.33736 | 38085 ft | 448 kts | 311° |
| 2026-04-29 14:32 | 46.22189 | 106.26938 | 38126 ft | 448 kts | 311° |
| 2026-04-29 14:33 | 46.26264 | 106.20126 | 38107 ft | 448 kts | 311° |
| 2026-04-29 14:33 | 46.30335 | 106.13305 | 38123 ft | 448 kts | 310° |
| 2026-04-29 14:34 | 46.34407 | 106.06466 | 38129 ft | 448 kts | 310° |
| 2026-04-29 14:34 | 46.38471 | 105.99623 | 38128 ft | 448 kts | 310° |
| 2026-04-29 14:35 | 46.42533 | 105.92765 | 38147 ft | 448 kts | 310° |
| 2026-04-29 14:35 | 46.46561 | 105.85953 | 38153 ft | 448 kts | 310° |
| 2026-04-29 14:36 | 46.50613 | 105.79078 | 38175 ft | 448 kts | 310° |
| 2026-04-29 14:36 | 46.54664 | 105.72182 | 38172 ft | 449 kts | 310° |
| 2026-04-29 14:37 | 46.58717 | 105.65269 | 38188 ft | 449 kts | 310° |
| 2026-04-29 14:37 | 46.62758 | 105.58360 | 38190 ft | 449 kts | 310° |
| 2026-04-29 14:38 | 46.66582 | 105.51808 | 38214 ft | 449 kts | 310° |
| 2026-04-29 14:38 | 46.70425 | 105.45206 | 38216 ft | 450 kts | 310° |
| 2026-04-29 14:39 | 46.74100 | 105.38877 | 38238 ft | 450 kts | 310° |
| 2026-04-29 14:39 | 46.78058 | 105.32043 | 38244 ft | 450 kts | 310° |
| 2026-04-29 14:40 | 46.82102 | 105.25045 | 38259 ft | 451 kts | 309° |
| 2026-04-29 14:40 | 46.85999 | 105.18285 | 38262 ft | 452 kts | 309° |
| 2026-04-29 14:41 | 46.89927 | 105.11452 | 38290 ft | 452 kts | 309° |
| 2026-04-29 14:41 | 46.93924 | 105.04483 | 38288 ft | 452 kts | 309° |
| 2026-04-29 14:42 | 46.97770 | 104.97762 | 38309 ft | 452 kts | 309° |
| 2026-04-29 14:42 | 47.01810 | 104.90683 | 38331 ft | 452 kts | 309° |
| 2026-04-29 14:43 | 47.05792 | 104.83687 | 38319 ft | 452 kts | 309° |
| 2026-04-29 14:43 | 47.09838 | 104.76558 | 38337 ft | 452 kts | 309° |
| 2026-04-29 14:44 | 47.13888 | 104.69404 | 38339 ft | 452 kts | 309° |
| 2026-04-29 14:44 | 47.17682 | 104.62685 | 38358 ft | 452 kts | 309° |
| 2026-04-29 14:45 | 47.21686 | 104.55578 | 38363 ft | 452 kts | 308° |
| 2026-04-29 14:45 | 47.25704 | 104.48427 | 38373 ft | 452 kts | 308° |
| 2026-04-29 14:46 | 47.29703 | 104.41291 | 38379 ft | 453 kts | 308° |
| 2026-04-29 14:46 | 47.33711 | 104.34119 | 38385 ft | 453 kts | 308° |
| 2026-04-29 14:47 | 47.37717 | 104.26932 | 38386 ft | 454 kts | 308° |
| 2026-04-29 14:47 | 47.41723 | 104.19729 | 38392 ft | 454 kts | 308° |
| 2026-04-29 14:48 | 47.45704 | 104.12553 | 38400 ft | 455 kts | 308° |
| 2026-04-29 14:48 | 47.49713 | 104.05302 | 38397 ft | 455 kts | 308° |
| 2026-04-29 14:49 | 47.53706 | 103.98062 | 38401 ft | 455 kts | 308° |
| 2026-04-29 14:49 | 47.57696 | 103.90808 | 38412 ft | 455 kts | 308° |
| 2026-04-29 14:50 | 47.61709 | 103.83492 | 38413 ft | 456 kts | 308° |
| 2026-04-29 14:50 | 47.65703 | 103.76194 | 38411 ft | 457 kts | 308° |
| 2026-04-29 14:51 | 47.69705 | 103.68863 | 38410 ft | 456 kts | 308° |
| 2026-04-29 14:51 | 47.73685 | 103.61548 | 38410 ft | 456 kts | 308° |
| 2026-04-29 14:52 | 47.77668 | 103.54211 | 38419 ft | 456 kts | 308° |
| 2026-04-29 14:52 | 47.81642 | 103.46870 | 38419 ft | 455 kts | 308° |
| 2026-04-29 14:53 | 47.85611 | 103.39518 | 38428 ft | 455 kts | 308° |
| 2026-04-29 14:53 | 47.89571 | 103.32162 | 38433 ft | 455 kts | 308° |
| 2026-04-29 14:54 | 47.93509 | 103.24832 | 38435 ft | 454 kts | 308° |
| 2026-04-29 14:54 | 47.97471 | 103.17429 | 38436 ft | 455 kts | 307° |
| 2026-04-29 14:55 | 48.01394 | 103.10076 | 38447 ft | 455 kts | 307° |
| 2026-04-29 14:55 | 48.05268 | 103.02797 | 38449 ft | 455 kts | 307° |
| 2026-04-29 14:56 | 48.09206 | 102.95379 | 38457 ft | 455 kts | 307° |
| 2026-04-29 14:56 | 48.12949 | 102.88312 | 38464 ft | 456 kts | 307° |
| 2026-04-29 14:57 | 48.16880 | 102.80867 | 38466 ft | 457 kts | 307° |
| 2026-04-29 14:57 | 48.20818 | 102.73389 | 38473 ft | 458 kts | 307° |
| 2026-04-29 14:58 | 48.24766 | 102.65871 | 38474 ft | 458 kts | 307° |
| 2026-04-29 14:58 | 48.28066 | 102.59571 | 38483 ft | 458 kts | 307° |
| 2026-04-29 14:59 | 48.31964 | 102.52113 | 38486 ft | 458 kts | 307° |
| 2026-04-29 14:59 | 48.35896 | 102.44566 | 38500 ft | 458 kts | 307° |
| 2026-04-29 15:00 | 48.39815 | 102.37023 | 38529 ft | 458 kts | 307° |
| 2026-04-29 15:00 | 48.43736 | 102.29456 | 38525 ft | 458 kts | 307° |
| 2026-04-29 15:01 | 48.47641 | 102.21897 | 38519 ft | 458 kts | 307° |
| 2026-04-29 15:01 | 48.51558 | 102.14292 | 38526 ft | 460 kts | 307° |
| 2026-04-29 15:02 | 48.55497 | 102.06620 | 38528 ft | 465 kts | 307° |
| 2026-04-29 15:02 | 48.59475 | 101.98856 | 38533 ft | 469 kts | 307° |
| 2026-04-29 15:03 | 48.63468 | 101.91045 | 38533 ft | 469 kts | 307° |
| 2026-04-29 15:03 | 48.67453 | 101.83225 | 38538 ft | 469 kts | 307° |
| 2026-04-29 15:04 | 48.71428 | 101.75394 | 38539 ft | 471 kts | 307° |
| 2026-04-29 15:04 | 48.75426 | 101.67503 | 38537 ft | 473 kts | 307° |
| 2026-04-29 15:05 | 48.79400 | 101.59632 | 38545 ft | 473 kts | 307° |
| 2026-04-29 15:05 | 48.83398 | 101.51687 | 38544 ft | 473 kts | 307° |
| 2026-04-29 15:06 | 48.87378 | 101.43752 | 38566 ft | 473 kts | 307° |
| 2026-04-29 15:06 | 48.91347 | 101.35820 | 38554 ft | 470 kts | 307° |
| 2026-04-29 15:07 | 48.95292 | 101.27914 | 38553 ft | 469 kts | 307° |
| 2026-04-29 15:07 | 48.99232 | 101.19989 | 38543 ft | 468 kts | 307° |
| 2026-04-29 15:08 | 49.03150 | 101.12089 | 38547 ft | 466 kts | 306° |
| 2026-04-29 15:08 | 49.07049 | 101.04203 | 38557 ft | 465 kts | 306° |
| 2026-04-29 15:09 | 49.10923 | 100.96347 | 38551 ft | 462 kts | 306° |
| 2026-04-29 15:09 | 49.14749 | 100.88563 | 38550 ft | 461 kts | 306° |
| 2026-04-29 15:10 | 49.18591 | 100.80723 | 38542 ft | 461 kts | 306° |
| 2026-04-29 15:10 | 49.22430 | 100.72866 | 38545 ft | 461 kts | 306° |
| 2026-04-29 15:11 | 49.26269 | 100.64988 | 38547 ft | 461 kts | 306° |
| 2026-04-29 15:11 | 49.30101 | 100.57099 | 38537 ft | 462 kts | 306° |
| 2026-04-29 15:12 | 49.33932 | 100.49190 | 38532 ft | 462 kts | 306° |
| 2026-04-29 15:12 | 49.37765 | 100.41253 | 38527 ft | 462 kts | 306° |
| 2026-04-29 15:13 | 49.41588 | 100.33315 | 38519 ft | 462 kts | 306° |
| 2026-04-29 15:13 | 49.45408 | 100.25357 | 38518 ft | 464 kts | 306° |
| 2026-04-29 15:14 | 49.49238 | 100.17353 | 38520 ft | 465 kts | 306° |
| 2026-04-29 15:14 | 49.53065 | 100.09333 | 38527 ft | 465 kts | 306° |
| 2026-04-29 15:15 | 49.56864 | 100.01348 | 38505 ft | 465 kts | 306° |
| 2026-04-29 15:15 | 49.60685 | 99.93294 | 38509 ft | 466 kts | 306° |
| 2026-04-29 15:16 | 49.64510 | 99.85211 | 38504 ft | 467 kts | 306° |
| 2026-04-29 15:16 | 49.68338 | 99.77088 | 38504 ft | 468 kts | 306° |
| 2026-04-29 15:17 | 49.72164 | 99.68945 | 38502 ft | 468 kts | 306° |
| 2026-04-29 15:17 | 49.75754 | 99.61284 | 38510 ft | 468 kts | 306° |
| 2026-04-29 15:18 | 49.79572 | 99.53111 | 38506 ft | 468 kts | 306° |
| 2026-04-29 15:18 | 49.83390 | 99.44913 | 38510 ft | 470 kts | 306° |
| 2026-04-29 15:19 | 49.87207 | 99.36691 | 38512 ft | 470 kts | 306° |
| 2026-04-29 15:19 | 49.91026 | 99.28442 | 38509 ft | 470 kts | 306° |
| 2026-04-29 15:20 | 49.94836 | 99.20186 | 38507 ft | 470 kts | 306° |
| 2026-04-29 15:20 | 49.98639 | 99.11920 | 38499 ft | 470 kts | 306° |
| 2026-04-29 15:21 | 50.02418 | 99.03677 | 38512 ft | 472 kts | 306° |
| 2026-04-29 15:21 | 50.06231 | 98.95339 | 38511 ft | 473 kts | 306° |
| 2026-04-29 15:22 | 50.10035 | 98.86990 | 38513 ft | 473 kts | 306° |
| 2026-04-29 15:22 | 50.13846 | 98.78601 | 38501 ft | 474 kts | 306° |
| 2026-04-29 15:23 | 50.17648 | 98.70207 | 38511 ft | 474 kts | 306° |
| 2026-04-29 15:23 | 50.21452 | 98.61780 | 38518 ft | 474 kts | 306° |
| 2026-04-29 15:24 | 50.25243 | 98.53352 | 38523 ft | 474 kts | 305° |
| 2026-04-29 15:24 | 50.29022 | 98.44926 | 38516 ft | 474 kts | 305° |
| 2026-04-29 15:25 | 50.32807 | 98.36460 | 38530 ft | 474 kts | 305° |
| 2026-04-29 15:25 | 50.36579 | 98.27997 | 38513 ft | 475 kts | 306° |
| 2026-04-29 15:26 | 50.40361 | 98.19467 | 38527 ft | 478 kts | 306° |
| 2026-04-29 15:26 | 50.44140 | 98.10896 | 38530 ft | 478 kts | 306° |
| 2026-04-29 15:27 | 50.47916 | 98.02306 | 38533 ft | 478 kts | 305° |
| 2026-04-29 15:27 | 50.51689 | 97.93701 | 38543 ft | 478 kts | 305° |
| 2026-04-29 15:28 | 50.55449 | 97.85099 | 38538 ft | 479 kts | 306° |
| 2026-04-29 15:28 | 50.59218 | 97.76447 | 38540 ft | 479 kts | 306° |
| 2026-04-29 15:29 | 50.62963 | 97.67836 | 38552 ft | 479 kts | 306° |
| 2026-04-29 15:30 | 50.70458 | 97.50482 | 38553 ft | 478 kts | 306° |
| 2026-04-29 15:30 | 50.74036 | 97.42154 | 38541 ft | 479 kts | 306° |
| 2026-04-29 15:31 | 50.77821 | 97.33322 | 38468 ft | 478 kts | 306° |
| 2026-04-29 15:31 | 50.81541 | 97.24610 | 38448 ft | 479 kts | 306° |
| 2026-04-29 15:32 | 50.85244 | 97.15916 | 38446 ft | 480 kts | 306° |
| 2026-04-29 15:32 | 50.88990 | 97.07089 | 38449 ft | 480 kts | 306° |
| 2026-04-29 15:33 | 50.92680 | 96.98361 | 38449 ft | 480 kts | 306° |
| 2026-04-29 15:33 | 50.96389 | 96.89561 | 38451 ft | 481 kts | 306° |
| 2026-04-29 15:34 | 51.00058 | 96.80827 | 37300 ft | 479 kts | 305° |
| 2026-04-29 15:34 | 51.01895 | 96.76430 | 38600 ft | 478 kts | 305° |
| 2026-04-29 15:34 | 51.03744 | 96.72010 | 38429 ft | 481 kts | 305° |
| 2026-04-29 15:35 | 51.07435 | 96.63169 | 38400 ft | 480 kts | 306° |
| 2026-04-29 15:35 | 51.11120 | 96.54310 | 38408 ft | 481 kts | 306° |
| 2026-04-29 15:36 | 51.14434 | 96.46316 | 38410 ft | 481 kts | 305° |
| 2026-04-29 15:36 | 51.18112 | 96.37413 | 38419 ft | 481 kts | 306° |
| 2026-04-29 15:37 | 51.21589 | 96.28965 | 38422 ft | 480 kts | 306° |
| 2026-04-29 15:37 | 51.25247 | 96.20051 | 38422 ft | 480 kts | 306° |
| 2026-04-29 15:38 | 51.28787 | 96.11392 | 38425 ft | 479 kts | 306° |
| 2026-04-29 15:38 | 51.32324 | 96.02716 | 38431 ft | 479 kts | 306° |
| 2026-04-29 15:39 | 51.35945 | 95.93801 | 38434 ft | 479 kts | 306° |
| 2026-04-29 15:39 | 51.39452 | 95.85138 | 38441 ft | 479 kts | 306° |
| 2026-04-29 15:40 | 51.42782 | 95.76885 | 38442 ft | 479 kts | 306° |
| 2026-04-29 15:40 | 51.45853 | 95.69250 | 38441 ft | 479 kts | 306° |
| 2026-04-29 15:41 | 51.49036 | 95.61317 | 38450 ft | 479 kts | 306° |
| 2026-04-29 15:41 | 51.52672 | 95.52219 | 38443 ft | 479 kts | 306° |
| 2026-04-29 15:42 | 51.56267 | 95.43192 | 38447 ft | 479 kts | 306° |
| 2026-04-29 15:42 | 51.59769 | 95.34369 | 38448 ft | 479 kts | 306° |
| 2026-04-29 15:43 | 51.62830 | 95.26632 | 38442 ft | 479 kts | 306° |
| 2026-04-29 15:43 | 51.65275 | 95.20438 | 38449 ft | 479 kts | 306° |
| 2026-04-29 15:44 | 51.68546 | 95.12125 | 38447 ft | 479 kts | 306° |
| 2026-04-29 15:44 | 51.71813 | 95.03794 | 38455 ft | 480 kts | 306° |
| 2026-04-29 15:45 | 51.74914 | 94.95863 | 38459 ft | 481 kts | 305° |
| 2026-04-29 15:45 | 51.77408 | 94.89465 | 38462 ft | 481 kts | 305° |
| 2026-04-29 15:46 | 51.81129 | 94.79891 | 38462 ft | 481 kts | 306° |
| 2026-04-29 15:46 | 51.83725 | 94.73194 | 38464 ft | 481 kts | 306° |
| 2026-04-29 15:47 | 51.86340 | 94.66431 | 38463 ft | 481 kts | 305° |
| 2026-04-29 15:47 | 51.90102 | 94.56660 | 38467 ft | 481 kts | 305° |
| 2026-04-29 15:48 | 51.92352 | 94.50799 | 38477 ft | 481 kts | 305° |
| 2026-04-29 15:48 | 51.95029 | 94.43809 | 38479 ft | 481 kts | 305° |
| 2026-04-29 15:49 | 51.98313 | 94.35207 | 38481 ft | 482 kts | 305° |
| 2026-04-29 15:49 | 52.01252 | 94.27487 | 38483 ft | 482 kts | 305° |
| 2026-04-29 15:50 | 52.04635 | 94.18569 | 38492 ft | 483 kts | 305° |
| 2026-04-29 15:50 | 52.08148 | 94.09275 | 38494 ft | 483 kts | 305° |
| 2026-04-29 15:51 | 52.11653 | 93.99967 | 38495 ft | 483 kts | 305° |
| 2026-04-29 15:51 | 52.15404 | 93.90961 | 38504 ft | 478 kts | 314° |
| 2026-04-29 15:52 | 52.20110 | 93.83411 | 38507 ft | 475 kts | 321° |
| 2026-04-29 15:52 | 52.25029 | 93.76224 | 38509 ft | 473 kts | 322° |
| 2026-04-29 15:53 | 52.29950 | 93.69121 | 38513 ft | 471 kts | 322° |
| 2026-04-29 15:53 | 52.34848 | 93.61999 | 38515 ft | 471 kts | 322° |
| 2026-04-29 15:54 | 52.39732 | 93.54843 | 38515 ft | 471 kts | 322° |
| 2026-04-29 15:54 | 52.44602 | 93.47676 | 38503 ft | 471 kts | 322° |
| 2026-04-29 15:55 | 52.49461 | 93.40504 | 38517 ft | 468 kts | 322° |
| 2026-04-29 15:55 | 52.54293 | 93.33349 | 38515 ft | 467 kts | 322° |
| 2026-04-29 15:56 | 52.59116 | 93.26187 | 38516 ft | 467 kts | 322° |
| 2026-04-29 15:56 | 52.63901 | 93.19062 | 38520 ft | 467 kts | 322° |
| 2026-04-29 15:57 | 52.68714 | 93.11871 | 38516 ft | 467 kts | 322° |
| 2026-04-29 15:57 | 52.73522 | 93.04663 | 38497 ft | 467 kts | 322° |
| 2026-04-29 15:58 | 52.78327 | 92.97440 | 38500 ft | 466 kts | 322° |
| 2026-04-29 15:58 | 52.83111 | 92.90224 | 38492 ft | 465 kts | 322° |
| 2026-04-29 15:59 | 52.87894 | 92.82989 | 38487 ft | 465 kts | 321° |
| 2026-04-29 15:59 | 52.92665 | 92.75748 | 38487 ft | 465 kts | 321° |
| 2026-04-29 16:00 | 52.97434 | 92.68488 | 38480 ft | 465 kts | 321° |
| 2026-04-29 16:00 | 53.02192 | 92.61221 | 38478 ft | 464 kts | 321° |
| 2026-04-29 16:01 | 53.06930 | 92.53963 | 38441 ft | 463 kts | 321° |
| 2026-04-29 16:01 | 53.11663 | 92.46690 | 38465 ft | 462 kts | 321° |
| 2026-04-29 16:02 | 53.16351 | 92.39463 | 38445 ft | 462 kts | 321° |
| 2026-04-29 16:02 | 53.21070 | 92.32166 | 38448 ft | 462 kts | 321° |
| 2026-04-29 16:03 | 53.25778 | 92.24862 | 38442 ft | 462 kts | 321° |
| 2026-04-29 16:03 | 53.30469 | 92.17561 | 38442 ft | 461 kts | 321° |
| 2026-04-29 16:04 | 53.35157 | 92.10244 | 38442 ft | 461 kts | 321° |
| 2026-04-29 16:04 | 53.39839 | 92.02899 | 38430 ft | 461 kts | 320° |
| 2026-04-29 16:05 | 53.44274 | 91.95103 | 38434 ft | 462 kts | 316° |
| 2026-04-29 16:05 | 53.48576 | 91.87080 | 38439 ft | 462 kts | 316° |
| 2026-04-29 16:06 | 53.52896 | 91.79113 | 38432 ft | 461 kts | 316° |
| 2026-04-29 16:06 | 53.57212 | 91.71142 | 38430 ft | 461 kts | 316° |
| 2026-04-29 16:07 | 53.61519 | 91.63151 | 38428 ft | 461 kts | 316° |
| 2026-04-29 16:07 | 53.65823 | 91.55156 | 38410 ft | 461 kts | 316° |
| 2026-04-29 16:08 | 53.70128 | 91.47144 | 38428 ft | 461 kts | 316° |
| 2026-04-29 16:08 | 53.74389 | 91.39030 | 38425 ft | 463 kts | 312° |
| 2026-04-29 16:09 | 53.78219 | 91.30337 | 38429 ft | 463 kts | 310° |
| 2026-04-29 16:09 | 53.81974 | 91.21483 | 38429 ft | 463 kts | 310° |
| 2026-04-29 16:10 | 53.85710 | 91.12591 | 38432 ft | 463 kts | 310° |
| 2026-04-29 16:10 | 53.87927 | 91.07306 | 38432 ft | 463 kts | 310° |
| 2026-04-29 16:11 | 53.89728 | 91.03015 | 38432 ft | 463 kts | 310° |
| 2026-04-29 16:11 | 53.93305 | 90.94474 | 38447 ft | 463 kts | 310° |
| 2026-04-29 16:12 | 53.97025 | 90.85563 | 38449 ft | 463 kts | 310° |
| 2026-04-29 16:12 | 54.00713 | 90.76698 | 38453 ft | 463 kts | 310° |
| 2026-04-29 16:13 | 54.04425 | 90.67743 | 38476 ft | 463 kts | 309° |
| 2026-04-29 16:13 | 54.08124 | 90.58785 | 38459 ft | 463 kts | 309° |
| 2026-04-29 16:14 | 54.11819 | 90.49808 | 38464 ft | 463 kts | 309° |
| 2026-04-29 16:14 | 54.15508 | 90.40814 | 38459 ft | 462 kts | 309° |
| 2026-04-29 16:15 | 54.19186 | 90.31811 | 38460 ft | 462 kts | 309° |
| 2026-04-29 16:15 | 54.22858 | 90.22794 | 38462 ft | 462 kts | 309° |
| 2026-04-29 16:16 | 54.26519 | 90.13770 | 38461 ft | 461 kts | 309° |
| 2026-04-29 16:16 | 54.30168 | 90.04742 | 38443 ft | 461 kts | 309° |
| 2026-04-29 16:17 | 54.33780 | 89.95771 | 38462 ft | 460 kts | 309° |
| 2026-04-29 16:17 | 54.37409 | 89.86730 | 38466 ft | 460 kts | 309° |
| 2026-04-29 16:18 | 54.41027 | 89.77679 | 38461 ft | 460 kts | 309° |
| 2026-04-29 16:18 | 54.44641 | 89.68609 | 38463 ft | 460 kts | 308° |
| 2026-04-29 16:19 | 54.48250 | 89.59516 | 38457 ft | 460 kts | 308° |
| 2026-04-29 16:19 | 54.51845 | 89.50428 | 38468 ft | 459 kts | 308° |
| 2026-04-29 16:20 | 54.55428 | 89.41333 | 38462 ft | 458 kts | 308° |
| 2026-04-29 16:20 | 54.59001 | 89.32234 | 38471 ft | 458 kts | 308° |
| 2026-04-29 16:21 | 54.62567 | 89.23118 | 38468 ft | 458 kts | 308° |
| 2026-04-29 16:21 | 54.66127 | 89.13985 | 38468 ft | 458 kts | 308° |
| 2026-04-29 16:22 | 54.69682 | 89.04830 | 38478 ft | 458 kts | 308° |
| 2026-04-29 16:22 | 54.73228 | 88.95664 | 38476 ft | 459 kts | 308° |
| 2026-04-29 16:23 | 54.76771 | 88.86475 | 38467 ft | 458 kts | 308° |
| 2026-04-29 16:23 | 54.80297 | 88.77292 | 38473 ft | 458 kts | 308° |
| 2026-04-29 16:24 | 54.83821 | 88.68096 | 38465 ft | 458 kts | 308° |
| 2026-04-29 16:24 | 54.87342 | 88.58887 | 38461 ft | 458 kts | 308° |
| 2026-04-29 16:25 | 54.90829 | 88.49725 | 38461 ft | 458 kts | 308° |
| 2026-04-29 16:25 | 54.94332 | 88.40492 | 38461 ft | 458 kts | 307° |
| 2026-04-29 16:26 | 54.97832 | 88.31236 | 38454 ft | 457 kts | 307° |
| 2026-04-29 16:26 | 55.01320 | 88.21975 | 38449 ft | 457 kts | 307° |
| 2026-04-29 16:27 | 55.04794 | 88.12715 | 38445 ft | 456 kts | 307° |
| 2026-04-29 16:27 | 55.08257 | 88.03450 | 38444 ft | 456 kts | 307° |
| 2026-04-29 16:28 | 55.11713 | 87.94167 | 38427 ft | 456 kts | 307° |
| 2026-04-29 16:28 | 55.15164 | 87.84868 | 38428 ft | 456 kts | 307° |
| 2026-04-29 16:29 | 55.18609 | 87.75564 | 38410 ft | 455 kts | 307° |
| 2026-04-29 16:29 | 55.22026 | 87.66262 | 38416 ft | 454 kts | 306° |
| 2026-04-29 16:30 | 55.25421 | 87.56951 | 38395 ft | 453 kts | 306° |
| 2026-04-29 16:30 | 55.28804 | 87.47652 | 38396 ft | 452 kts | 306° |
| 2026-04-29 16:31 | 55.32178 | 87.38351 | 38399 ft | 452 kts | 306° |
| 2026-04-29 16:31 | 55.35545 | 87.29036 | 38389 ft | 452 kts | 306° |
| 2026-04-29 16:32 | 55.38909 | 87.19699 | 38384 ft | 451 kts | 306° |
| 2026-04-29 16:32 | 55.42250 | 87.10384 | 38379 ft | 450 kts | 306° |
| 2026-04-29 16:33 | 55.47248 | 86.96388 | 38379 ft | 450 kts | 305° |
| 2026-04-29 16:33 | 55.50546 | 86.87107 | 38374 ft | 449 kts | 305° |
| 2026-04-29 16:34 | 55.53850 | 86.77773 | 38368 ft | 448 kts | 305° |
| 2026-04-29 16:34 | 55.57149 | 86.68419 | 38369 ft | 448 kts | 305° |
| 2026-04-29 16:35 | 55.60437 | 86.59059 | 38366 ft | 448 kts | 304° |
| 2026-04-29 16:35 | 55.63714 | 86.49695 | 38363 ft | 447 kts | 304° |
| 2026-04-29 16:36 | 55.66984 | 86.40315 | 38357 ft | 447 kts | 304° |
| 2026-04-29 16:36 | 55.70244 | 86.30928 | 38358 ft | 447 kts | 304° |
| 2026-04-29 16:37 | 55.72949 | 86.23111 | 38368 ft | 447 kts | 304° |
| 2026-04-29 16:37 | 55.76196 | 86.13694 | 38351 ft | 447 kts | 304° |
| 2026-04-29 16:38 | 55.79961 | 86.02737 | 38349 ft | 446 kts | 303° |
| 2026-04-29 16:38 | 55.82642 | 85.94890 | 38349 ft | 446 kts | 303° |
| 2026-04-29 16:39 | 55.85853 | 85.85424 | 38342 ft | 446 kts | 303° |
| 2026-04-29 16:39 | 55.89056 | 85.75954 | 38341 ft | 446 kts | 303° |
| 2026-04-29 16:40 | 55.92254 | 85.66468 | 38333 ft | 446 kts | 303° |
| 2026-04-29 16:40 | 55.95440 | 85.56984 | 38333 ft | 446 kts | 303° |
| 2026-04-29 16:41 | 55.98591 | 85.47406 | 38333 ft | 446 kts | 302° |
| 2026-04-29 16:41 | 56.01666 | 85.37758 | 38328 ft | 447 kts | 301° |
| 2026-04-29 16:42 | 56.04735 | 85.28098 | 38327 ft | 447 kts | 301° |
| 2026-04-29 16:42 | 56.07809 | 85.18436 | 38325 ft | 447 kts | 301° |
| 2026-04-29 16:43 | 56.10883 | 85.08761 | 38322 ft | 447 kts | 301° |
| 2026-04-29 16:43 | 56.13951 | 84.99065 | 38322 ft | 447 kts | 301° |
| 2026-04-29 16:44 | 56.17009 | 84.89363 | 38322 ft | 447 kts | 301° |
| 2026-04-29 16:44 | 56.20058 | 84.79643 | 38312 ft | 448 kts | 301° |
| 2026-04-29 16:45 | 56.23117 | 84.69853 | 38318 ft | 451 kts | 300° |
| 2026-04-29 16:45 | 56.26190 | 84.59978 | 38317 ft | 453 kts | 300° |
| 2026-04-29 16:46 | 56.29260 | 84.50073 | 38320 ft | 453 kts | 300° |
| 2026-04-29 16:46 | 56.32318 | 84.40163 | 38317 ft | 453 kts | 300° |
| 2026-04-29 16:47 | 56.35371 | 84.30229 | 38316 ft | 453 kts | 300° |
| 2026-04-29 16:47 | 56.38417 | 84.20274 | 38308 ft | 454 kts | 299° |
| 2026-04-29 16:48 | 56.41449 | 84.10322 | 38310 ft | 457 kts | 299° |
| 2026-04-29 16:48 | 56.44508 | 84.00240 | 38312 ft | 457 kts | 299° |
| 2026-04-29 16:49 | 56.47557 | 83.90150 | 38312 ft | 457 kts | 299° |
| 2026-04-29 16:49 | 56.50601 | 83.80032 | 38309 ft | 457 kts | 299° |
| 2026-04-29 16:50 | 56.53634 | 83.69908 | 38312 ft | 457 kts | 299° |
| 2026-04-29 16:50 | 56.56660 | 83.59761 | 38312 ft | 457 kts | 299° |
| 2026-04-29 16:51 | 56.59679 | 83.49593 | 38308 ft | 457 kts | 299° |
| 2026-04-29 16:51 | 56.62692 | 83.39405 | 38310 ft | 457 kts | 298° |
| 2026-04-29 16:52 | 56.65692 | 83.29215 | 38307 ft | 458 kts | 298° |
| 2026-04-29 16:52 | 56.68683 | 83.19009 | 38306 ft | 457 kts | 298° |
| 2026-04-29 16:53 | 56.71667 | 83.08783 | 38306 ft | 457 kts | 298° |
| 2026-04-29 16:53 | 56.74640 | 82.98549 | 38306 ft | 457 kts | 298° |
| 2026-04-29 16:54 | 56.77584 | 82.88370 | 38306 ft | 456 kts | 298° |
| 2026-04-29 16:54 | 56.80532 | 82.78135 | 38306 ft | 456 kts | 297° |
| 2026-04-29 16:55 | 56.83473 | 82.67878 | 38304 ft | 456 kts | 297° |
| 2026-04-29 16:55 | 56.86405 | 82.57605 | 38303 ft | 456 kts | 297° |
| 2026-04-29 16:56 | 56.89329 | 82.47317 | 38310 ft | 456 kts | 297° |
| 2026-04-29 16:56 | 56.92240 | 82.37026 | 38300 ft | 455 kts | 297° |
| 2026-04-29 16:57 | 56.95140 | 82.26728 | 38297 ft | 454 kts | 296° |
| 2026-04-29 16:57 | 56.98027 | 82.16432 | 38292 ft | 454 kts | 296° |
| 2026-04-29 16:58 | 57.00905 | 82.06125 | 38395 ft | 455 kts | 296° |
| 2026-04-29 16:58 | 57.02391 | 82.01018 | 38602 ft | 454 kts | 299° |
| 2026-04-29 16:58 | 57.03982 | 81.96003 | 38756 ft | 454 kts | 300° |
| 2026-04-29 16:59 | 57.05617 | 81.91038 | 38901 ft | 455 kts | 301° |
| 2026-04-29 16:59 | 57.07263 | 81.86072 | 39015 ft | 455 kts | 301° |
| 2026-04-29 16:59 | 57.08897 | 81.81107 | 39117 ft | 455 kts | 300° |
| 2026-04-29 16:59 | 57.10521 | 81.76109 | 39235 ft | 455 kts | 300° |
| 2026-04-29 17:00 | 57.12131 | 81.71102 | 39339 ft | 454 kts | 300° |
| 2026-04-29 17:00 | 57.13732 | 81.66084 | 39384 ft | 456 kts | 299° |
| 2026-04-29 17:00 | 57.16917 | 81.56026 | 39482 ft | 458 kts | 299° |
| 2026-04-29 17:01 | 57.18515 | 81.50960 | 39588 ft | 458 kts | 299° |
| 2026-04-29 17:01 | 57.20115 | 81.45879 | 39670 ft | 458 kts | 299° |
| 2026-04-29 17:01 | 57.23306 | 81.35713 | 39839 ft | 458 kts | 299° |
| 2026-04-29 17:02 | 57.26494 | 81.25520 | 39992 ft | 458 kts | 299° |
| 2026-04-29 17:02 | 57.29674 | 81.15311 | 40133 ft | 458 kts | 299° |
| 2026-04-29 17:03 | 57.32851 | 81.05067 | 40238 ft | 460 kts | 299° |
| 2026-04-29 17:03 | 57.36030 | 80.94770 | 40266 ft | 461 kts | 299° |
| 2026-04-29 17:04 | 57.39204 | 80.84447 | 40258 ft | 461 kts | 299° |
| 2026-04-29 17:04 | 57.42372 | 80.74101 | 40261 ft | 461 kts | 299° |
| 2026-04-29 17:05 | 57.45513 | 80.63796 | 40260 ft | 461 kts | 299° |
| 2026-04-29 17:05 | 57.48677 | 80.53367 | 40245 ft | 461 kts | 298° |
| 2026-04-29 17:06 | 57.51813 | 80.42989 | 40248 ft | 461 kts | 298° |
| 2026-04-29 17:06 | 57.54947 | 80.32568 | 40253 ft | 461 kts | 298° |
| 2026-04-29 17:07 | 57.58063 | 80.22160 | 40244 ft | 459 kts | 298° |
| 2026-04-29 17:07 | 57.61160 | 80.11770 | 40243 ft | 458 kts | 298° |
| 2026-04-29 17:08 | 57.64246 | 80.01368 | 40235 ft | 458 kts | 298° |
| 2026-04-29 17:08 | 57.67328 | 79.90936 | 40236 ft | 458 kts | 298° |
| 2026-04-29 17:09 | 57.70377 | 79.80572 | 40236 ft | 458 kts | 298° |
| 2026-04-29 17:09 | 57.73436 | 79.70124 | 40225 ft | 458 kts | 298° |
| 2026-04-29 17:10 | 57.76463 | 79.59620 | 40224 ft | 458 kts | 297° |
| 2026-04-29 17:10 | 57.79459 | 79.49102 | 40227 ft | 457 kts | 297° |
| 2026-04-29 17:11 | 57.82442 | 79.38588 | 40219 ft | 457 kts | 297° |
| 2026-04-29 17:11 | 57.85424 | 79.28049 | 40222 ft | 457 kts | 297° |
| 2026-04-29 17:12 | 57.88394 | 79.17513 | 40209 ft | 457 kts | 297° |
| 2026-04-29 17:12 | 57.90858 | 79.08736 | 40203 ft | 457 kts | 297° |
| 2026-04-29 17:13 | 57.94311 | 78.96375 | 40202 ft | 457 kts | 296° |
| 2026-04-29 17:13 | 57.97255 | 78.85788 | 40209 ft | 456 kts | 296° |
| 2026-04-29 17:14 | 58.00191 | 78.75177 | 40196 ft | 456 kts | 296° |
| 2026-04-29 17:14 | 58.03111 | 78.64575 | 40199 ft | 455 kts | 296° |
| 2026-04-29 17:15 | 58.06019 | 78.53968 | 40192 ft | 455 kts | 296° |
| 2026-04-29 17:15 | 58.08919 | 78.43338 | 40200 ft | 455 kts | 296° |
| 2026-04-29 17:16 | 58.11811 | 78.32690 | 40200 ft | 455 kts | 296° |
| 2026-04-29 17:16 | 58.14692 | 78.22031 | 40188 ft | 455 kts | 295° |
| 2026-04-29 17:17 | 58.17545 | 78.11428 | 40184 ft | 455 kts | 295° |
| 2026-04-29 17:17 | 58.20410 | 78.00727 | 40187 ft | 455 kts | 295° |
| 2026-04-29 17:18 | 58.23267 | 77.90008 | 40178 ft | 455 kts | 295° |
| 2026-04-29 17:18 | 58.26113 | 77.79274 | 40173 ft | 455 kts | 295° |
| 2026-04-29 17:19 | 58.28950 | 77.68525 | 40173 ft | 455 kts | 295° |
| 2026-04-29 17:19 | 58.31779 | 77.57758 | 40172 ft | 455 kts | 295° |
| 2026-04-29 17:20 | 58.34599 | 77.46972 | 40167 ft | 455 kts | 295° |
| 2026-04-29 17:20 | 58.37412 | 77.36163 | 40165 ft | 455 kts | 294° |
| 2026-04-29 17:21 | 58.40213 | 77.25345 | 40168 ft | 455 kts | 294° |
| 2026-04-29 17:21 | 58.43006 | 77.14507 | 40164 ft | 455 kts | 294° |
| 2026-04-29 17:22 | 58.45789 | 77.03658 | 40162 ft | 455 kts | 294° |
| 2026-04-29 17:22 | 58.48561 | 76.92795 | 40157 ft | 455 kts | 294° |
| 2026-04-29 17:23 | 58.51323 | 76.81918 | 40159 ft | 455 kts | 294° |
| 2026-04-29 17:23 | 58.54075 | 76.71027 | 40160 ft | 455 kts | 294° |
| 2026-04-29 17:24 | 58.56801 | 76.60189 | 40148 ft | 455 kts | 294° |
| 2026-04-29 17:24 | 58.59798 | 76.49509 | 40151 ft | 457 kts | 302° |
| 2026-04-29 17:25 | 58.63478 | 76.39531 | 40148 ft | 460 kts | 303° |
| 2026-04-29 17:25 | 58.67281 | 76.29631 | 40137 ft | 461 kts | 304° |
| 2026-04-29 17:26 | 58.71092 | 76.19731 | 40141 ft | 460 kts | 304° |
| 2026-04-29 17:26 | 58.74887 | 76.09795 | 40138 ft | 460 kts | 303° |
| 2026-04-29 17:27 | 58.78664 | 75.99837 | 40135 ft | 460 kts | 303° |
| 2026-04-29 17:27 | 58.81797 | 75.91538 | 40132 ft | 460 kts | 303° |
| 2026-04-29 17:28 | 58.85562 | 75.81526 | 40127 ft | 461 kts | 303° |
| 2026-04-29 17:28 | 58.89331 | 75.71463 | 40125 ft | 462 kts | 303° |
| 2026-04-29 17:29 | 58.93091 | 75.61381 | 40121 ft | 462 kts | 303° |
| 2026-04-29 17:29 | 58.96841 | 75.51286 | 40123 ft | 462 kts | 303° |
| 2026-04-29 17:30 | 59.00586 | 75.41161 | 40119 ft | 462 kts | 302° |
| 2026-04-29 17:30 | 59.04320 | 75.31019 | 40113 ft | 462 kts | 302° |
| 2026-04-29 17:31 | 59.08050 | 75.20844 | 40112 ft | 462 kts | 302° |
| 2026-04-29 17:31 | 59.11776 | 75.10636 | 40115 ft | 463 kts | 302° |
| 2026-04-29 17:32 | 59.15504 | 75.00379 | 40108 ft | 464 kts | 302° |
| 2026-04-29 17:32 | 59.19228 | 74.90092 | 40101 ft | 464 kts | 302° |
| 2026-04-29 17:33 | 59.22945 | 74.79778 | 40106 ft | 464 kts | 302° |
| 2026-04-29 17:33 | 59.26631 | 74.69504 | 40105 ft | 464 kts | 302° |
| 2026-04-29 17:34 | 59.30331 | 74.59144 | 40097 ft | 466 kts | 302° |
| 2026-04-29 17:34 | 59.33811 | 74.48485 | 40093 ft | 462 kts | 293° |
| 2026-04-29 17:35 | 59.37935 | 74.31456 | 40102 ft | 460 kts | 292° |
| 2026-04-29 17:36 | 59.40571 | 74.20014 | 40089 ft | 460 kts | 291° |
| 2026-04-29 17:36 | 59.43200 | 74.08540 | 40086 ft | 461 kts | 291° |
| 2026-04-29 17:37 | 59.45828 | 73.97050 | 40080 ft | 461 kts | 291° |
| 2026-04-29 17:37 | 59.48450 | 73.85552 | 40086 ft | 461 kts | 291° |
| 2026-04-29 17:38 | 59.51050 | 73.74086 | 40080 ft | 463 kts | 291° |
| 2026-04-29 17:38 | 59.53664 | 73.62497 | 40073 ft | 463 kts | 291° |
| 2026-04-29 17:39 | 59.56267 | 73.50896 | 40081 ft | 463 kts | 291° |
| 2026-04-29 17:39 | 59.58859 | 73.39274 | 40072 ft | 463 kts | 291° |
| 2026-04-29 17:40 | 59.61443 | 73.27627 | 40070 ft | 463 kts | 291° |
| 2026-04-29 17:40 | 59.64017 | 73.15963 | 40068 ft | 463 kts | 290° |
| 2026-04-29 17:41 | 59.66581 | 73.04276 | 40075 ft | 463 kts | 290° |
| 2026-04-29 17:41 | 59.69137 | 72.92556 | 40069 ft | 464 kts | 290° |